CheckWX is a tool to help pilots better visualize weather data.  It is not intended as a substitute for an official pre-flight weather briefing.

22:31:40 UTC

KBJI TAF
Bemidji Regional Airport
Bemidji, Minnesota, USA
KBJI 191728Z 1918/2018 24012G16KT P6SM SKC FM200100 VRB05KT P6SM SKC

Oct-19@
18:00 UTC

Oct-19 @ 18:00 UTC

Oct-20@
01:00 UTC

Oct-20 @ 01:00 UTC

KBJI 191728Z 1918/2018 24012G16KT P6SM SKC
Wind
  • 240° at 12 KTS
  • {Gusting to 16 KTS
Cloud Levels
  • Clear skies

Oct-20@
01:00 UTC

Oct-20 @ 01:00 UTC

Oct-20@
18:00 UTC

Oct-20 @ 18:00 UTC

FM200100 VRB05KT P6SM SKC

From

From Standard forecast or significant change

Wind
  • Variable at 5 KTS
Cloud Levels
  • Clear skies